ENOL

Ørland Airport

Ørland, Norway
METAR ENOL 241150Z 13011KT 9999 FEW020 SCT065 BKN180 M00/M03 Q1034 NOSIG
Observed Flight Rules
Feb-24 @ 11:50 UTC (30 minutes ago) Visual Flight Rules
Wind Visibility Clouds
130° at 11 knots 10,000+ meters
  • Few at 2,000' AGL
  • Scattered at 6,500' AGL
  • Broken at 18,000' AGL
Temperatures Readings
Current 0°C / 32°F
Dewpoint -3°C / 27°F
Humidity 80%
Altimeter 30.53" Hg
Pressure 1034 hPa
Elevation 7
METAR ENOL 241150Z 13011KT 9999 FEW020 SCT065 BKN180 M00/M03 Q1034 NOSIG
Observed Flight Rules
Feb-24 @ 11:50 UTC
(30 minutes ago)
VFR
Wind Visibility
130° at 11 knots 10,000+ meters
Clouds
  • Few at 2,000' AGL
  • Scattered at 6,500' AGL
  • Broken at 18,000' AGL
Temperature Dewpoint
0°C / 32°F -3°C / 27°F
Humidity Altimeter Pressure
80% 30.53" Hg 1034 hPa